sensor_id;sensor_type;location;lat;lon;timestamp;temperature;humidity
14962;DHT22;56489;53.166;10.864;2022-10-28T00:00:29;12.50;99.90
14962;DHT22;56489;53.166;10.864;2022-10-28T00:02:59;12.60;99.90
14962;DHT22;56489;53.166;10.864;2022-10-28T00:05:28;12.60;99.90
14962;DHT22;56489;53.166;10.864;2022-10-28T00:07:58;12.50;99.90
14962;DHT22;56489;53.166;10.864;2022-10-28T00:10:25;12.50;99.90
14962;DHT22;56489;53.166;10.864;2022-10-28T00:12:52;12.50;99.90
14962;DHT22;56489;53.166;10.864;2022-10-28T00:15:19;12.40;99.90
14962;DHT22;56489;53.166;10.864;2022-10-28T00:17:45;12.40;99.90
14962;DHT22;56489;53.166;10.864;2022-10-28T00:20:13;12.40;99.90
14962;DHT22;56489;53.166;10.864;2022-10-28T00:22:41;12.40;99.90
14962;DHT22;56489;53.166;10.864;2022-10-28T00:25:09;12.40;99.90
14962;DHT22;56489;53.166;10.864;2022-10-28T00:27:36;12.40;99.90
14962;DHT22;56489;53.166;10.864;2022-10-28T00:30:03;12.40;99.90
14962;DHT22;56489;53.166;10.864;2022-10-28T00:32:30;12.50;99.90
14962;DHT22;56489;53.166;10.864;2022-10-28T00:34:57;12.50;99.90
14962;DHT22;56489;53.166;10.864;2022-10-28T00:37:24;12.50;99.90
14962;DHT22;56489;53.166;10.864;2022-10-28T00:39:51;12.50;99.90
14962;DHT22;56489;53.166;10.864;2022-10-28T00:42:20;12.40;99.90
14962;DHT22;56489;53.166;10.864;2022-10-28T00:44:55;12.40;99.90
14962;DHT22;56489;53.166;10.864;2022-10-28T00:47:27;12.40;99.90
14962;DHT22;56489;53.166;10.864;2022-10-28T00:50:00;12.40;99.90
14962;DHT22;56489;53.166;10.864;2022-10-28T00:52:29;12.40;99.90
14962;DHT22;56489;53.166;10.864;2022-10-28T00:54:58;12.40;99.90
14962;DHT22;56489;53.166;10.864;2022-10-28T00:57:30;12.40;99.90
14962;DHT22;56489;53.166;10.864;2022-10-28T01:00:00;12.40;99.90
14962;DHT22;56489;53.166;10.864;2022-10-28T01:02:27;12.30;99.90
14962;DHT22;56489;53.166;10.864;2022-10-28T01:04:54;12.30;99.90
14962;DHT22;56489;53.166;10.864;2022-10-28T01:07:22;12.30;99.90
14962;DHT22;56489;53.166;10.864;2022-10-28T01:09:48;12.30;99.90
14962;DHT22;56489;53.166;10.864;2022-10-28T01:12:34;12.30;99.90
14962;DHT22;56489;53.166;10.864;2022-10-28T01:23:34;12.50;99.90
14962;DHT22;56489;53.166;10.864;2022-10-28T01:29:01;12.70;99.90
14962;DHT22;56489;53.166;10.864;2022-10-28T01:32:01;12.70;99.90
14962;DHT22;56489;53.166;10.864;2022-10-28T01:37:59;12.80;99.90
14962;DHT22;56489;53.166;10.864;2022-10-28T01:40:19;12.80;99.90
14962;DHT22;56489;53.166;10.864;2022-10-28T01:48:25;12.90;99.90
14962;DHT22;56489;53.166;10.864;2022-10-28T01:51:02;13.00;99.90
14962;DHT22;56489;53.166;10.864;2022-10-28T01:53:33;13.00;99.90
14962;DHT22;56489;53.166;10.864;2022-10-28T01:56:06;13.10;99.90
14962;DHT22;56489;53.166;10.864;2022-10-28T01:58:34;13.20;99.90
14962;DHT22;56489;53.166;10.864;2022-10-28T02:01:04;13.20;99.90
14962;DHT22;56489;53.166;10.864;2022-10-28T02:03:32;13.20;99.90
14962;DHT22;56489;53.166;10.864;2022-10-28T02:06:02;13.30;99.90
14962;DHT22;56489;53.166;10.864;2022-10-28T02:19:42;13.50;99.90
14962;DHT22;56489;53.166;10.864;2022-10-28T02:22:26;13.50;99.90
14962;DHT22;56489;53.166;10.864;2022-10-28T02:25:17;13.60;99.90
14962;DHT22;56489;53.166;10.864;2022-10-28T02:27:47;13.60;99.90
14962;DHT22;56489;53.166;10.864;2022-10-28T02:30:23;13.70;99.90
14962;DHT22;56489;53.166;10.864;2022-10-28T02:33:02;13.70;99.90
14962;DHT22;56489;53.166;10.864;2022-10-28T02:35:36;13.80;99.90
14962;DHT22;56489;53.166;10.864;2022-10-28T02:38:16;13.80;99.90
14962;DHT22;56489;53.166;10.864;2022-10-28T02:40:48;13.80;99.90
14962;DHT22;56489;53.166;10.864;2022-10-28T02:43:16;13.80;99.90
14962;DHT22;56489;53.166;10.864;2022-10-28T02:45:48;13.90;99.90
14962;DHT22;56489;53.166;10.864;2022-10-28T02:48:20;13.90;99.90
14962;DHT22;56489;53.166;10.864;2022-10-28T02:51:08;13.90;99.90
14962;DHT22;56489;53.166;10.864;2022-10-28T02:54:06;13.90;99.90
14962;DHT22;56489;53.166;10.864;2022-10-28T02:56:38;13.90;99.90
14962;DHT22;56489;53.166;10.864;2022-10-28T02:59:09;13.90;99.90
14962;DHT22;56489;53.166;10.864;2022-10-28T03:01:37;13.80;99.90
14962;DHT22;56489;53.166;10.864;2022-10-28T03:04:05;13.80;99.90
14962;DHT22;56489;53.166;10.864;2022-10-28T03:06:31;13.80;99.90
14962;DHT22;56489;53.166;10.864;2022-10-28T03:08:58;13.80;99.90
14962;DHT22;56489;53.166;10.864;2022-10-28T03:11:25;13.70;99.90
14962;DHT22;56489;53.166;10.864;2022-10-28T03:13:52;13.70;99.90
14962;DHT22;56489;53.166;10.864;2022-10-28T03:16:19;13.70;99.90
14962;DHT22;56489;53.166;10.864;2022-10-28T03:18:46;13.70;99.90
14962;DHT22;56489;53.166;10.864;2022-10-28T03:21:12;13.70;99.90
14962;DHT22;56489;53.166;10.864;2022-10-28T03:23:39;13.60;99.90
14962;DHT22;56489;53.166;10.864;2022-10-28T03:26:06;13.60;99.90
14962;DHT22;56489;53.166;10.864;2022-10-28T03:28:33;13.50;99.90
14962;DHT22;56489;53.166;10.864;2022-10-28T03:31:00;13.50;99.90
14962;DHT22;56489;53.166;10.864;2022-10-28T03:33:27;13.40;99.90
14962;DHT22;56489;53.166;10.864;2022-10-28T03:35:53;13.40;99.90
14962;DHT22;56489;53.166;10.864;2022-10-28T03:38:20;13.30;99.90
14962;DHT22;56489;53.166;10.864;2022-10-28T03:40:48;13.20;99.90
14962;DHT22;56489;53.166;10.864;2022-10-28T03:43:15;13.10;99.90
14962;DHT22;56489;53.166;10.864;2022-10-28T03:45:43;13.10;99.90
14962;DHT22;56489;53.166;10.864;2022-10-28T03:48:10;13.00;99.90
14962;DHT22;56489;53.166;10.864;2022-10-28T03:50:37;13.00;99.90
14962;DHT22;56489;53.166;10.864;2022-10-28T03:53:04;13.00;99.90
14962;DHT22;56489;53.166;10.864;2022-10-28T03:55:31;13.00;99.90
14962;DHT22;56489;53.166;10.864;2022-10-28T03:58:00;12.90;99.90
14962;DHT22;56489;53.166;10.864;2022-10-28T04:00:28;12.90;99.90
14962;DHT22;56489;53.166;10.864;2022-10-28T04:02:55;12.80;99.90
14962;DHT22;56489;53.166;10.864;2022-10-28T04:05:22;12.80;99.90
14962;DHT22;56489;53.166;10.864;2022-10-28T04:07:49;12.70;99.90
14962;DHT22;56489;53.166;10.864;2022-10-28T04:10:16;12.60;99.90
14962;DHT22;56489;53.166;10.864;2022-10-28T04:12:43;12.60;99.90
14962;DHT22;56489;53.166;10.864;2022-10-28T04:15:10;12.60;99.90
14962;DHT22;56489;53.166;10.864;2022-10-28T04:17:37;12.60;99.90
14962;DHT22;56489;53.166;10.864;2022-10-28T04:20:04;12.60;99.90
14962;DHT22;56489;53.166;10.864;2022-10-28T04:22:31;12.60;99.90
14962;DHT22;56489;53.166;10.864;2022-10-28T04:24:58;12.60;99.90
14962;DHT22;56489;53.166;10.864;2022-10-28T04:27:24;12.60;99.90
14962;DHT22;56489;53.166;10.864;2022-10-28T04:29:51;12.70;99.90
14962;DHT22;56489;53.166;10.864;2022-10-28T04:32:18;12.70;99.90
14962;DHT22;56489;53.166;10.864;2022-10-28T04:34:45;12.70;99.90
14962;DHT22;56489;53.166;10.864;2022-10-28T04:37:12;12.70;99.90
14962;DHT22;56489;53.166;10.864;2022-10-28T04:39:46;12.70;99.90
14962;DHT22;56489;53.166;10.864;2022-10-28T04:42:13;12.70;99.90
14962;DHT22;56489;53.166;10.864;2022-10-28T04:44:39;12.60;99.90
14962;DHT22;56489;53.166;10.864;2022-10-28T04:47:06;12.60;99.90
14962;DHT22;56489;53.166;10.864;2022-10-28T04:49:33;12.50;99.90
14962;DHT22;56489;53.166;10.864;2022-10-28T04:52:04;12.50;99.90
14962;DHT22;56489;53.166;10.864;2022-10-28T04:54:31;12.50;99.90
14962;DHT22;56489;53.166;10.864;2022-10-28T04:56:58;12.50;99.90
14962;DHT22;56489;53.166;10.864;2022-10-28T04:59:25;12.50;99.90
14962;DHT22;56489;53.166;10.864;2022-10-28T05:01:51;12.50;99.90
14962;DHT22;56489;53.166;10.864;2022-10-28T05:04:19;12.50;99.90
14962;DHT22;56489;53.166;10.864;2022-10-28T05:06:45;12.60;99.90
14962;DHT22;56489;53.166;10.864;2022-10-28T05:09:12;12.60;99.90
14962;DHT22;56489;53.166;10.864;2022-10-28T05:11:39;12.60;99.90
14962;DHT22;56489;53.166;10.864;2022-10-28T05:14:06;12.70;99.90
14962;DHT22;56489;53.166;10.864;2022-10-28T05:16:33;12.70;99.90
14962;DHT22;56489;53.166;10.864;2022-10-28T05:19:00;12.80;99.90
14962;DHT22;56489;53.166;10.864;2022-10-28T05:21:27;12.90;99.90
14962;DHT22;56489;53.166;10.864;2022-10-28T05:23:54;12.90;99.90
14962;DHT22;56489;53.166;10.864;2022-10-28T05:26:20;13.00;99.90
14962;DHT22;56489;53.166;10.864;2022-10-28T05:28:50;13.10;99.90
14962;DHT22;56489;53.166;10.864;2022-10-28T05:31:17;13.20;99.90
14962;DHT22;56489;53.166;10.864;2022-10-28T05:33:44;13.30;99.90
14962;DHT22;56489;53.166;10.864;2022-10-28T05:36:11;13.30;99.90
14962;DHT22;56489;53.166;10.864;2022-10-28T05:38:38;13.40;99.90
14962;DHT22;56489;53.166;10.864;2022-10-28T05:41:05;13.40;99.90
14962;DHT22;56489;53.166;10.864;2022-10-28T05:43:33;13.50;99.90
14962;DHT22;56489;53.166;10.864;2022-10-28T05:45:59;13.60;99.90
14962;DHT22;56489;53.166;10.864;2022-10-28T05:48:28;13.70;99.90
14962;DHT22;56489;53.166;10.864;2022-10-28T05:50:54;13.80;99.90
14962;DHT22;56489;53.166;10.864;2022-10-28T05:53:22;13.80;99.90
14962;DHT22;56489;53.166;10.864;2022-10-28T05:55:48;13.80;99.90
14962;DHT22;56489;53.166;10.864;2022-10-28T05:58:15;13.80;99.90
14962;DHT22;56489;53.166;10.864;2022-10-28T06:00:42;13.80;99.90
14962;DHT22;56489;53.166;10.864;2022-10-28T06:03:10;13.80;99.90
14962;DHT22;56489;53.166;10.864;2022-10-28T06:05:44;13.80;99.90
14962;DHT22;56489;53.166;10.864;2022-10-28T06:08:12;13.70;99.90
14962;DHT22;56489;53.166;10.864;2022-10-28T06:10:40;13.40;99.90
14962;DHT22;56489;53.166;10.864;2022-10-28T06:13:07;13.70;99.90
14962;DHT22;56489;53.166;10.864;2022-10-28T06:15:34;13.60;99.90
14962;DHT22;56489;53.166;10.864;2022-10-28T06:18:01;13.50;99.90
14962;DHT22;56489;53.166;10.864;2022-10-28T06:20:27;13.50;99.90
14962;DHT22;56489;53.166;10.864;2022-10-28T06:22:54;13.50;99.90
14962;DHT22;56489;53.166;10.864;2022-10-28T06:25:24;13.40;99.90
14962;DHT22;56489;53.166;10.864;2022-10-28T06:27:53;13.40;99.90
14962;DHT22;56489;53.166;10.864;2022-10-28T06:30:21;13.40;99.90
14962;DHT22;56489;53.166;10.864;2022-10-28T06:32:48;13.40;99.90
14962;DHT22;56489;53.166;10.864;2022-10-28T06:35:15;13.40;99.90
14962;DHT22;56489;53.166;10.864;2022-10-28T06:37:43;13.40;99.90
14962;DHT22;56489;53.166;10.864;2022-10-28T06:40:09;13.40;99.90
14962;DHT22;56489;53.166;10.864;2022-10-28T06:42:36;13.40;99.90
14962;DHT22;56489;53.166;10.864;2022-10-28T06:45:03;13.40;99.90
14962;DHT22;56489;53.166;10.864;2022-10-28T06:47:31;13.40;99.90
14962;DHT22;56489;53.166;10.864;2022-10-28T06:49:57;13.40;99.90
14962;DHT22;56489;53.166;10.864;2022-10-28T06:52:24;13.50;99.90
14962;DHT22;56489;53.166;10.864;2022-10-28T06:54:51;13.50;99.90
14962;DHT22;56489;53.166;10.864;2022-10-28T06:57:18;13.60;99.90
14962;DHT22;56489;53.166;10.864;2022-10-28T06:59:45;13.70;99.90
14962;DHT22;56489;53.166;10.864;2022-10-28T07:02:11;13.80;99.90
14962;DHT22;56489;53.166;10.864;2022-10-28T07:04:39;13.90;99.90
14962;DHT22;56489;53.166;10.864;2022-10-28T07:07:05;14.20;99.90
14962;DHT22;56489;53.166;10.864;2022-10-28T07:09:32;14.00;99.90
14962;DHT22;56489;53.166;10.864;2022-10-28T07:11:59;14.00;99.90
14962;DHT22;56489;53.166;10.864;2022-10-28T07:14:30;14.00;99.90
14962;DHT22;56489;53.166;10.864;2022-10-28T07:16:57;14.00;99.90
14962;DHT22;56489;53.166;10.864;2022-10-28T07:19:24;14.00;99.90
14962;DHT22;56489;53.166;10.864;2022-10-28T07:21:50;14.00;99.90
14962;DHT22;56489;53.166;10.864;2022-10-28T07:24:17;14.00;99.90
14962;DHT22;56489;53.166;10.864;2022-10-28T07:26:46;14.00;99.90
14962;DHT22;56489;53.166;10.864;2022-10-28T07:29:15;14.00;99.90
14962;DHT22;56489;53.166;10.864;2022-10-28T07:31:42;14.00;99.90
14962;DHT22;56489;53.166;10.864;2022-10-28T07:34:09;14.00;99.90
14962;DHT22;56489;53.166;10.864;2022-10-28T07:36:35;14.10;99.90
14962;DHT22;56489;53.166;10.864;2022-10-28T07:39:03;14.10;99.90
14962;DHT22;56489;53.166;10.864;2022-10-28T07:41:29;14.10;99.90
14962;DHT22;56489;53.166;10.864;2022-10-28T07:43:56;14.10;99.90
14962;DHT22;56489;53.166;10.864;2022-10-28T07:46:23;14.20;99.90
14962;DHT22;56489;53.166;10.864;2022-10-28T07:48:50;14.20;99.90
14962;DHT22;56489;53.166;10.864;2022-10-28T07:51:17;14.30;99.90
14962;DHT22;56489;53.166;10.864;2022-10-28T07:53:43;14.30;99.90
14962;DHT22;56489;53.166;10.864;2022-10-28T07:56:11;14.40;99.90
14962;DHT22;56489;53.166;10.864;2022-10-28T07:58:41;14.40;99.90
14962;DHT22;56489;53.166;10.864;2022-10-28T08:01:10;14.50;99.90
14962;DHT22;56489;53.166;10.864;2022-10-28T08:03:38;14.60;99.90
14962;DHT22;56489;53.166;10.864;2022-10-28T08:06:11;14.60;99.90
14962;DHT22;56489;53.166;10.864;2022-10-28T08:08:38;14.70;99.90
14962;DHT22;56489;53.166;10.864;2022-10-28T08:11:23;14.80;99.90
14962;DHT22;56489;53.166;10.864;2022-10-28T08:13:51;14.90;99.90
14962;DHT22;56489;53.166;10.864;2022-10-28T08:16:18;14.90;99.90
14962;DHT22;56489;53.166;10.864;2022-10-28T08:18:45;15.00;99.90
14962;DHT22;56489;53.166;10.864;2022-10-28T08:21:13;15.10;99.90
14962;DHT22;56489;53.166;10.864;2022-10-28T08:23:41;15.20;99.90
14962;DHT22;56489;53.166;10.864;2022-10-28T08:26:14;15.30;99.90
14962;DHT22;56489;53.166;10.864;2022-10-28T08:28:41;15.40;99.90
14962;DHT22;56489;53.166;10.864;2022-10-28T08:31:08;15.60;99.90
14962;DHT22;56489;53.166;10.864;2022-10-28T08:33:37;15.80;99.90
14962;DHT22;56489;53.166;10.864;2022-10-28T08:36:05;15.90;99.90
14962;DHT22;56489;53.166;10.864;2022-10-28T08:38:32;16.10;99.90
14962;DHT22;56489;53.166;10.864;2022-10-28T08:41:18;16.20;99.90
14962;DHT22;56489;53.166;10.864;2022-10-28T08:46:51;16.50;99.90
14962;DHT22;56489;53.166;10.864;2022-10-28T08:49:23;16.60;99.90
14962;DHT22;56489;53.166;10.864;2022-10-28T08:51:54;16.80;99.90
14962;DHT22;56489;53.166;10.864;2022-10-28T08:54:35;16.90;99.90
14962;DHT22;56489;53.166;10.864;2022-10-28T08:57:11;17.10;99.90
14962;DHT22;56489;53.166;10.864;2022-10-28T08:59:44;17.20;99.90
14962;DHT22;56489;53.166;10.864;2022-10-28T09:02:28;17.30;99.90
14962;DHT22;56489;53.166;10.864;2022-10-28T09:05:18;17.40;99.90
14962;DHT22;56489;53.166;10.864;2022-10-28T09:07:45;17.50;99.90
14962;DHT22;56489;53.166;10.864;2022-10-28T09:10:16;17.60;99.90
14962;DHT22;56489;53.166;10.864;2022-10-28T09:13:00;17.60;99.90
14962;DHT22;56489;53.166;10.864;2022-10-28T09:15:42;17.70;99.90
14962;DHT22;56489;53.166;10.864;2022-10-28T09:18:18;17.80;99.90
14962;DHT22;56489;53.166;10.864;2022-10-28T09:20:56;17.90;99.90
14962;DHT22;56489;53.166;10.864;2022-10-28T09:23:31;18.00;99.90
14962;DHT22;56489;53.166;10.864;2022-10-28T09:28:52;18.10;99.90
14962;DHT22;56489;53.166;10.864;2022-10-28T09:31:39;18.20;99.90
14962;DHT22;56489;53.166;10.864;2022-10-28T09:39:55;18.30;99.90
14962;DHT22;56489;53.166;10.864;2022-10-28T09:42:44;18.30;99.90
14962;DHT22;56489;53.166;10.864;2022-10-28T09:45:20;18.50;99.90
14962;DHT22;56489;53.166;10.864;2022-10-28T09:47:54;18.50;99.90
14962;DHT22;56489;53.166;10.864;2022-10-28T09:50:27;18.60;99.90
14962;DHT22;56489;53.166;10.864;2022-10-28T09:55:49;18.70;99.90
14962;DHT22;56489;53.166;10.864;2022-10-28T09:58:16;18.70;99.90
14962;DHT22;56489;53.166;10.864;2022-10-28T10:00:44;18.80;99.90
14962;DHT22;56489;53.166;10.864;2022-10-28T10:03:11;18.90;99.90
14962;DHT22;56489;53.166;10.864;2022-10-28T10:05:41;19.00;99.90
14962;DHT22;56489;53.166;10.864;2022-10-28T10:08:13;19.00;99.90
14962;DHT22;56489;53.166;10.864;2022-10-28T10:10:58;19.10;99.90
14962;DHT22;56489;53.166;10.864;2022-10-28T10:13:28;19.20;99.90
14962;DHT22;56489;53.166;10.864;2022-10-28T10:16:08;19.20;99.90
14962;DHT22;56489;53.166;10.864;2022-10-28T10:18:38;19.20;99.90
14962;DHT22;56489;53.166;10.864;2022-10-28T10:21:12;19.30;99.90
14962;DHT22;56489;53.166;10.864;2022-10-28T10:23:40;19.40;99.90
14962;DHT22;56489;53.166;10.864;2022-10-28T10:26:09;19.40;99.90
14962;DHT22;56489;53.166;10.864;2022-10-28T10:28:49;19.40;99.90
14962;DHT22;56489;53.166;10.864;2022-10-28T10:31:22;19.50;99.90
14962;DHT22;56489;53.166;10.864;2022-10-28T10:33:55;19.60;99.90
14962;DHT22;56489;53.166;10.864;2022-10-28T10:36:24;19.60;99.90
14962;DHT22;56489;53.166;10.864;2022-10-28T10:38:59;19.70;99.90
14962;DHT22;56489;53.166;10.864;2022-10-28T10:41:38;19.70;99.90
14962;DHT22;56489;53.166;10.864;2022-10-28T10:49:38;19.90;99.90
14962;DHT22;56489;53.166;10.864;2022-10-28T10:52:14;19.90;99.90
14962;DHT22;56489;53.166;10.864;2022-10-28T10:54:47;20.00;99.90
14962;DHT22;56489;53.166;10.864;2022-10-28T10:57:22;20.00;99.90
14962;DHT22;56489;53.166;10.864;2022-10-28T10:59:52;20.10;99.90
14962;DHT22;56489;53.166;10.864;2022-10-28T11:02:26;20.10;99.90
14962;DHT22;56489;53.166;10.864;2022-10-28T11:05:03;20.30;99.90
14962;DHT22;56489;53.166;10.864;2022-10-28T11:07:32;20.20;99.90
14962;DHT22;56489;53.166;10.864;2022-10-28T11:09:59;20.20;99.90
14962;DHT22;56489;53.166;10.864;2022-10-28T11:12:30;20.30;99.90
14962;DHT22;56489;53.166;10.864;2022-10-28T11:14:59;20.30;99.90
14962;DHT22;56489;53.166;10.864;2022-10-28T11:17:31;20.30;99.90
14962;DHT22;56489;53.166;10.864;2022-10-28T11:20:21;20.40;99.90
14962;DHT22;56489;53.166;10.864;2022-10-28T11:23:06;20.40;99.90
14962;DHT22;56489;53.166;10.864;2022-10-28T11:25:40;20.40;99.90
14962;DHT22;56489;53.166;10.864;2022-10-28T11:33:16;20.50;99.90
14962;DHT22;56489;53.166;10.864;2022-10-28T11:36:14;20.50;99.90
14962;DHT22;56489;53.166;10.864;2022-10-28T11:38:51;20.60;99.90
14962;DHT22;56489;53.166;10.864;2022-10-28T11:41:31;20.60;99.90
14962;DHT22;56489;53.166;10.864;2022-10-28T11:44:01;20.60;99.90
14962;DHT22;56489;53.166;10.864;2022-10-28T11:52:30;20.90;99.90
14962;DHT22;56489;53.166;10.864;2022-10-28T12:17:39;21.10;99.90
14962;DHT22;56489;53.166;10.864;2022-10-28T12:22:59;21.10;99.90
14962;DHT22;56489;53.166;10.864;2022-10-28T12:25:32;21.10;99.90
14962;DHT22;56489;53.166;10.864;2022-10-28T12:28:03;21.00;99.90
14962;DHT22;56489;53.166;10.864;2022-10-28T12:30:35;21.00;99.90
14962;DHT22;56489;53.166;10.864;2022-10-28T12:33:12;21.00;99.90
14962;DHT22;56489;53.166;10.864;2022-10-28T12:35:45;21.00;99.90
14962;DHT22;56489;53.166;10.864;2022-10-28T12:38:29;21.00;99.90
14962;DHT22;56489;53.166;10.864;2022-10-28T12:41:17;21.00;99.90
14962;DHT22;56489;53.166;10.864;2022-10-28T12:43:56;21.10;99.90
14962;DHT22;56489;53.166;10.864;2022-10-28T12:49:29;21.20;99.90
14962;DHT22;56489;53.166;10.864;2022-10-28T12:51:59;21.30;99.90
14962;DHT22;56489;53.166;10.864;2022-10-28T12:54:41;21.40;99.90
14962;DHT22;56489;53.166;10.864;2022-10-28T12:57:20;21.50;99.90
14962;DHT22;56489;53.166;10.864;2022-10-28T13:05:25;21.70;99.90
14962;DHT22;56489;53.166;10.864;2022-10-28T13:08:27;21.60;99.90
14962;DHT22;56489;53.166;10.864;2022-10-28T13:19:47;21.30;99.90
14962;DHT22;56489;53.166;10.864;2022-10-28T13:28:00;21.10;99.90
14962;DHT22;56489;53.166;10.864;2022-10-28T13:30:27;21.10;99.90
14962;DHT22;56489;53.166;10.864;2022-10-28T13:33:05;21.10;99.90
14962;DHT22;56489;53.166;10.864;2022-10-28T13:35:32;21.10;99.90
14962;DHT22;56489;53.166;10.864;2022-10-28T13:38:00;21.10;99.90
14962;DHT22;56489;53.166;10.864;2022-10-28T13:41:06;21.10;99.90
14962;DHT22;56489;53.166;10.864;2022-10-28T13:43:19;21.10;99.90
14962;DHT22;56489;53.166;10.864;2022-10-28T13:45:52;21.00;99.90
14962;DHT22;56489;53.166;10.864;2022-10-28T13:56:38;21.00;99.90
14962;DHT22;56489;53.166;10.864;2022-10-28T14:01:59;20.80;99.90
14962;DHT22;56489;53.166;10.864;2022-10-28T14:04:57;20.70;99.90
14962;DHT22;56489;53.166;10.864;2022-10-28T14:07:27;20.70;99.90
14962;DHT22;56489;53.166;10.864;2022-10-28T14:10:11;20.60;99.90
14962;DHT22;56489;53.166;10.864;2022-10-28T14:12:52;20.50;99.90
14962;DHT22;56489;53.166;10.864;2022-10-28T14:15:34;20.50;99.90
14962;DHT22;56489;53.166;10.864;2022-10-28T14:21:05;20.30;99.90
14962;DHT22;56489;53.166;10.864;2022-10-28T14:26:02;20.10;99.90
14962;DHT22;56489;53.166;10.864;2022-10-28T14:33:45;19.90;99.90
14962;DHT22;56489;53.166;10.864;2022-10-28T14:47:51;19.40;99.90
14962;DHT22;56489;53.166;10.864;2022-10-28T14:50:27;19.30;99.90
14962;DHT22;56489;53.166;10.864;2022-10-28T14:52:57;19.20;99.90
14962;DHT22;56489;53.166;10.864;2022-10-28T14:55:31;19.10;99.90
14962;DHT22;56489;53.166;10.864;2022-10-28T15:01:02;18.90;99.90
14962;DHT22;56489;53.166;10.864;2022-10-28T15:03:31;18.80;99.90
14962;DHT22;56489;53.166;10.864;2022-10-28T15:06:37;18.70;99.90
14962;DHT22;56489;53.166;10.864;2022-10-28T15:09:16;18.60;99.90
14962;DHT22;56489;53.166;10.864;2022-10-28T15:11:46;18.50;99.90
14962;DHT22;56489;53.166;10.864;2022-10-28T15:14:39;18.40;99.90
14962;DHT22;56489;53.166;10.864;2022-10-28T15:17:27;18.30;99.90
14962;DHT22;56489;53.166;10.864;2022-10-28T15:19:57;18.30;99.90
14962;DHT22;56489;53.166;10.864;2022-10-28T15:22:30;18.20;99.90
14962;DHT22;56489;53.166;10.864;2022-10-28T15:25:01;18.10;99.90
14962;DHT22;56489;53.166;10.864;2022-10-28T15:27:31;18.00;99.90
14962;DHT22;56489;53.166;10.864;2022-10-28T15:29:58;17.90;99.90
14962;DHT22;56489;53.166;10.864;2022-10-28T15:32:33;17.90;99.90
14962;DHT22;56489;53.166;10.864;2022-10-28T15:37:59;17.80;99.90
14962;DHT22;56489;53.166;10.864;2022-10-28T15:40:30;17.70;99.90
14962;DHT22;56489;53.166;10.864;2022-10-28T15:42:59;17.60;99.90
14962;DHT22;56489;53.166;10.864;2022-10-28T15:45:29;17.60;99.90
14962;DHT22;56489;53.166;10.864;2022-10-28T15:47:58;17.50;99.90
14962;DHT22;56489;53.166;10.864;2022-10-28T15:50:31;17.50;99.90
14962;DHT22;56489;53.166;10.864;2022-10-28T15:56:06;17.30;99.90
14962;DHT22;56489;53.166;10.864;2022-10-28T15:58:38;17.20;99.90
14962;DHT22;56489;53.166;10.864;2022-10-28T16:01:08;17.20;99.90
14962;DHT22;56489;53.166;10.864;2022-10-28T16:03:45;17.10;99.90
14962;DHT22;56489;53.166;10.864;2022-10-28T16:06:31;17.10;99.90
14962;DHT22;56489;53.166;10.864;2022-10-28T16:11:27;17.00;99.90
14962;DHT22;56489;53.166;10.864;2022-10-28T16:13:55;16.90;99.90
14962;DHT22;56489;53.166;10.864;2022-10-28T16:16:25;16.90;99.90
14962;DHT22;56489;53.166;10.864;2022-10-28T16:19:05;16.80;99.90
14962;DHT22;56489;53.166;10.864;2022-10-28T16:21:33;16.80;99.90
14962;DHT22;56489;53.166;10.864;2022-10-28T16:24:01;16.80;99.90
14962;DHT22;56489;53.166;10.864;2022-10-28T16:26:30;16.80;99.90
14962;DHT22;56489;53.166;10.864;2022-10-28T16:28:58;16.70;99.90
14962;DHT22;56489;53.166;10.864;2022-10-28T16:31:27;16.70;99.90
14962;DHT22;56489;53.166;10.864;2022-10-28T16:33:54;16.70;99.90
14962;DHT22;56489;53.166;10.864;2022-10-28T16:36:20;16.70;99.90
14962;DHT22;56489;53.166;10.864;2022-10-28T16:38:47;16.70;99.90
14962;DHT22;56489;53.166;10.864;2022-10-28T16:41:16;16.70;99.90
14962;DHT22;56489;53.166;10.864;2022-10-28T16:43:44;16.60;99.90
14962;DHT22;56489;53.166;10.864;2022-10-28T16:46:12;16.60;99.90
14962;DHT22;56489;53.166;10.864;2022-10-28T16:48:39;16.60;99.90
14962;DHT22;56489;53.166;10.864;2022-10-28T16:51:13;16.60;99.90
14962;DHT22;56489;53.166;10.864;2022-10-28T16:53:40;16.60;99.90
14962;DHT22;56489;53.166;10.864;2022-10-28T16:56:13;16.60;99.90
14962;DHT22;56489;53.166;10.864;2022-10-28T16:58:42;16.60;99.90
14962;DHT22;56489;53.166;10.864;2022-10-28T17:01:09;16.60;99.90
14962;DHT22;56489;53.166;10.864;2022-10-28T17:03:36;16.50;99.90
14962;DHT22;56489;53.166;10.864;2022-10-28T17:06:03;16.50;99.90
14962;DHT22;56489;53.166;10.864;2022-10-28T17:08:30;16.50;99.90
14962;DHT22;56489;53.166;10.864;2022-10-28T17:11:17;16.50;99.90
14962;DHT22;56489;53.166;10.864;2022-10-28T17:13:44;16.50;99.90
14962;DHT22;56489;53.166;10.864;2022-10-28T17:16:11;16.60;99.90
14962;DHT22;56489;53.166;10.864;2022-10-28T17:18:38;16.60;99.90
14962;DHT22;56489;53.166;10.864;2022-10-28T17:21:05;16.70;99.90
14962;DHT22;56489;53.166;10.864;2022-10-28T17:23:32;16.70;99.90
14962;DHT22;56489;53.166;10.864;2022-10-28T17:26:00;16.80;99.90
14962;DHT22;56489;53.166;10.864;2022-10-28T17:28:28;16.80;99.90
14962;DHT22;56489;53.166;10.864;2022-10-28T17:31:05;16.90;99.90
14962;DHT22;56489;53.166;10.864;2022-10-28T17:33:32;17.20;99.90
14962;DHT22;56489;53.166;10.864;2022-10-28T17:36:05;17.00;99.90
14962;DHT22;56489;53.166;10.864;2022-10-28T17:38:32;17.00;99.90
14962;DHT22;56489;53.166;10.864;2022-10-28T17:40:59;17.00;99.90
14962;DHT22;56489;53.166;10.864;2022-10-28T17:43:27;17.00;99.90
14962;DHT22;56489;53.166;10.864;2022-10-28T17:46:04;17.10;99.90
14962;DHT22;56489;53.166;10.864;2022-10-28T17:48:32;17.10;99.90
14962;DHT22;56489;53.166;10.864;2022-10-28T17:50:59;17.10;99.90
14962;DHT22;56489;53.166;10.864;2022-10-28T17:53:26;17.20;99.90
14962;DHT22;56489;53.166;10.864;2022-10-28T17:56:00;17.20;99.90
14962;DHT22;56489;53.166;10.864;2022-10-28T17:58:28;17.20;99.90
14962;DHT22;56489;53.166;10.864;2022-10-28T18:01:00;17.20;99.90
14962;DHT22;56489;53.166;10.864;2022-10-28T18:03:27;17.20;99.90
14962;DHT22;56489;53.166;10.864;2022-10-28T18:06:02;17.20;99.90
14962;DHT22;56489;53.166;10.864;2022-10-28T18:08:37;17.20;99.90
14962;DHT22;56489;53.166;10.864;2022-10-28T18:11:05;17.20;99.90
14962;DHT22;56489;53.166;10.864;2022-10-28T18:13:34;17.10;99.90